Time;durP1;ratioP1;P1;durP2;ratioP2;P2;SDS_P1;SDS_P2;PMS_P1;PMS_P2;Temp;Humidity;BMP_temperature;BMP_pressure;BME280_temperature;BME280_humidity;BME280_pressure;Samples;Min_cycle;Max_cycle;Signal;HPM_P1;HPM_P2
2022/06/02 00:01:00;;;;;;;;;;;;;;;;;;5017234;28;20112;-55
2022/06/02 00:03:41;;;;;;;0.00;0.00;;;;;;;;;;5025625;28;44737;-54
2022/06/02 00:06:15;;;;;;;0.00;0.00;;;;;;;;;;5018854;28;20570;-55
2022/06/02 00:08:51;;;;;;;0.00;0.00;;;;;;;;;;5009615;28;20138;-55
2022/06/02 00:11:21;;;;;;;0.00;0.00;;;;;;;;;;5016768;28;20144;-56
2022/06/02 00:14:06;;;;;;;0.00;0.00;;;;;;;;;;5030520;28;20515;-56
2022/06/02 00:16:36;;;;;;;0.00;0.00;;;;;;;;;;5015711;28;20093;-56
2022/06/02 00:19:05;;;;;;;0.00;0.00;;;;;;;;;;5010781;28;20059;-55
2022/06/02 00:21:34;;;;;;;0.00;0.00;;;;;;;;;;5018510;28;20108;-55
2022/06/02 00:24:14;;;;;;;0.00;0.00;;;;;;;;;;5022080;28;20090;-56
2022/06/02 00:26:52;;;;;;;0.00;0.00;;;;;;;;;;5010178;28;20062;-56
2022/06/02 00:29:30;;;;;;;0.40;0.40;;;;;;;;;;5010631;28;20591;-56
2022/06/02 00:32:17;;;;;;;0.00;0.00;;;;;;;;;;5010692;28;20086;-55
2022/06/02 00:34:54;;;;;;;0.00;0.00;;;;;;;;;;5012551;28;20061;-56
2022/06/02 00:37:20;;;;;;;0.00;0.00;;;;;;;;;;5010350;28;20050;-56
2022/06/02 00:39:48;;;;;;;0.00;0.00;;;;;;;;;;5009949;28;20059;-55
2022/06/02 00:42:28;;;;;;;0.00;0.00;;;;;;;;;;5014150;28;20054;-56
2022/06/02 00:44:54;;;;;;;0.00;0.00;;;;;;;;;;5026268;28;20503;-55
2022/06/02 00:47:39;;;;;;;0.00;0.00;;;;;;;;;;5028566;28;20061;-56
2022/06/02 00:50:35;;;;;;;0.13;0.08;;;;;;;;;;5008739;28;20066;-55
2022/06/02 00:53:20;;;;;;;0.00;0.00;;;;;;;;;;5010121;28;20113;-56
2022/06/02 00:59:12;;;;;;;0.00;0.00;;;;;;;;;;5009681;28;20541;-56
2022/06/02 01:01:39;;;;;;;0.00;0.00;;;;;;;;;;5016999;28;20465;-56
2022/06/02 01:04:09;;;;;;;0.00;0.00;;;;;;;;;;5028187;28;20057;-56
2022/06/02 01:06:35;;;;;;;0.47;0.47;;;;;;;;;;5029842;28;20054;-56
2022/06/02 01:09:05;;;;;;;0.00;0.00;;;;;;;;;;5026698;28;20105;-55
2022/06/02 01:11:37;;;;;;;0.00;0.00;;;;;;;;;;5026672;28;20057;-56
2022/06/02 01:14:06;;;;;;;0.00;0.00;;;;;;;;;;5028865;28;20054;-54
2022/06/02 01:16:44;;;;;;;0.00;0.00;;;;;;;;;;5029397;28;20057;-55
2022/06/02 01:19:31;;;;;;;0.00;0.00;;;;;;;;;;5025223;28;20149;-56
2022/06/02 01:22:16;;;;;;;0.00;0.00;;;;;;;;;;5026713;28;20136;-53
2022/06/02 01:24:44;;;;;;;0.00;0.00;;;;;;;;;;5012311;28;20113;-52
2022/06/02 01:27:20;;;;;;;0.00;0.00;;;;;;;;;;5008112;28;20101;-55
2022/06/02 01:29:59;;;;;;;0.00;0.00;;;;;;;;;;5028643;28;20054;-56
2022/06/02 01:32:38;;;;;;;0.10;0.10;;;;;;;;;;5009679;28;20121;-56
2022/06/02 01:35:13;;;;;;;0.00;0.00;;;;;;;;;;5009074;28;20062;-53
2022/06/02 01:37:39;;;;;;;0.00;0.00;;;;;;;;;;5007996;28;20652;-56
2022/06/02 01:40:21;;;;;;;0.00;0.00;;;;;;;;;;5009666;28;20054;-55
2022/06/02 01:42:55;;;;;;;0.20;0.20;;;;;;;;;;5008915;28;20055;-55
2022/06/02 01:45:21;;;;;;;0.00;0.00;;;;;;;;;;5008436;28;20054;-56
2022/06/02 01:47:52;;;;;;;0.00;0.00;;;;;;;;;;5009865;28;20046;-55
2022/06/02 01:50:19;;;;;;;0.00;0.00;;;;;;;;;;5008474;28;20157;-56
2022/06/02 01:52:45;;;;;;;0.00;0.00;;;;;;;;;;5011810;28;20505;-53
2022/06/02 01:55:26;;;;;;;0.20;0.10;;;;;;;;;;5026921;28;20156;-53
2022/06/02 01:57:59;;;;;;;0.00;0.00;;;;;;;;;;5028579;28;20085;-55
2022/06/02 02:00:26;;;;;;;0.00;0.00;;;;;;;;;;5027902;28;20093;-52
2022/06/02 02:02:59;;;;;;;0.00;0.00;;;;;;;;;;5025888;28;20053;-54
2022/06/02 02:05:25;;;;;;;0.00;0.00;;;;;;;;;;5007797;28;20103;-54
2022/06/02 02:07:59;;;;;;;0.00;0.00;;;;;;;;;;5008734;28;20107;-53
2022/06/02 02:10:58;;;;;;;0.00;0.00;;;;;;;;;;5023122;28;20050;-55
2022/06/02 02:13:32;;;;;;;0.00;0.00;;;;;;;;;;5025009;28;20057;-52
2022/06/02 02:16:25;;;;;;;0.00;0.00;;;;;;;;;;5026708;28;20105;-54
2022/06/02 02:19:10;;;;;;;0.10;0.10;;;;;;;;;;5025478;28;20559;-54
2022/06/02 02:21:36;;;;;;;0.00;0.00;;;;;;;;;;5028057;28;20097;-56
2022/06/02 02:24:21;;;;;;;0.00;0.00;;;;;;;;;;5026487;28;20116;-55
2022/06/02 02:26:52;;;;;;;0.00;0.00;;;;;;;;;;5026689;28;20049;-52
2022/06/02 02:29:36;;;;;;;0.00;0.00;;;;;;;;;;5027855;28;20112;-53
2022/06/02 02:32:13;;;;;;;0.00;0.00;;;;;;;;;;5028671;28;20082;-53
2022/06/02 02:34:48;;;;;;;0.00;0.00;;;;;;;;;;5019523;28;20065;-52
2022/06/02 02:37:33;;;;;;;0.00;0.00;;;;;;;;;;5026062;28;20136;-54
2022/06/02 02:40:09;;;;;;;0.00;0.00;;;;;;;;;;5028176;28;20562;-52
2022/06/02 02:42:55;;;;;;;0.00;0.00;;;;;;;;;;5009563;28;20476;-52
2022/06/02 02:45:34;;;;;;;0.00;0.00;;;;;;;;;;5024058;28;20168;-55
2022/06/02 02:48:05;;;;;;;0.00;0.00;;;;;;;;;;5008410;28;20505;-53
2022/06/02 02:50:36;;;;;;;0.47;0.32;;;;;;;;;;5022586;28;20128;-52
2022/06/02 02:53:16;;;;;;;0.00;0.00;;;;;;;;;;5023707;28;20126;-53
2022/06/02 02:55:56;;;;;;;0.00;0.00;;;;;;;;;;5008032;28;20164;-53
2022/06/02 02:58:40;;;;;;;0.00;0.00;;;;;;;;;;5008195;28;20090;-55
2022/06/02 03:01:10;;;;;;;0.00;0.00;;;;;;;;;;5007998;28;20105;-56
2022/06/02 03:03:40;;;;;;;0.00;0.00;;;;;;;;;;5012371;28;20058;-54
2022/06/02 03:06:26;;;;;;;0.00;0.00;;;;;;;;;;5027152;28;20058;-53
2022/06/02 03:08:59;;;;;;;0.00;0.00;;;;;;;;;;5027770;28;20081;-53
2022/06/02 03:11:44;;;;;;;0.00;0.00;;;;;;;;;;5026411;28;20054;-56
2022/06/02 03:14:14;;;;;;;0.00;0.00;;;;;;;;;;5017794;28;20583;-56
2022/06/02 03:16:41;;;;;;;0.00;0.00;;;;;;;;;;5010495;28;20105;-55
2022/06/02 03:19:13;;;;;;;0.00;0.00;;;;;;;;;;5013153;28;20136;-53
2022/06/02 03:21:52;;;;;;;0.00;0.00;;;;;;;;;;5028596;28;20093;-56
2022/06/02 03:24:37;;;;;;;0.00;0.00;;;;;;;;;;5028889;28;20545;-53
2022/06/02 03:27:07;;;;;;;0.20;0.05;;;;;;;;;;5029458;28;20046;-56
2022/06/02 03:29:49;;;;;;;0.00;0.00;;;;;;;;;;5029927;28;20089;-56
2022/06/02 03:32:15;;;;;;;0.00;0.00;;;;;;;;;;5011030;28;20513;-55
2022/06/02 03:35:00;;;;;;;0.00;0.00;;;;;;;;;;5010265;28;20077;-58
2022/06/02 03:37:45;;;;;;;0.00;0.00;;;;;;;;;;5027997;28;20140;-55
2022/06/02 03:40:15;;;;;;;0.00;0.00;;;;;;;;;;5030474;28;20061;-58
2022/06/02 03:42:45;;;;;;;0.00;0.00;;;;;;;;;;5030733;28;20109;-58
2022/06/02 03:45:17;;;;;;;0.00;0.00;;;;;;;;;;5011616;28;20113;-54
2022/06/02 03:48:06;;;;;;;0.00;0.00;;;;;;;;;;5030449;28;20081;-55
2022/06/02 03:50:48;;;;;;;0.00;0.00;;;;;;;;;;5026025;28;20137;-61
2022/06/02 03:53:37;;;;;;;0.00;0.00;;;;;;;;;;5016433;28;20066;-55
2022/06/02 03:56:20;;;;;;;0.00;0.00;;;;;;;;;;5028318;28;20057;-55
2022/06/02 03:58:47;;;;;;;0.00;0.00;;;;;;;;;;5030080;28;20557;-56
2022/06/02 04:01:18;;;;;;;0.00;0.00;;;;;;;;;;5017338;28;20078;-58
2022/06/02 04:04:08;;;;;;;0.00;0.00;;;;;;;;;;5016151;28;20049;-54
2022/06/02 04:06:40;;;;;;;2.50;1.02;;;;;;;;;;5018976;28;20063;-55
2022/06/02 04:09:25;;;;;;;0.00;0.00;;;;;;;;;;5010707;28;20054;-56
2022/06/02 04:14:40;;;;;;;0.00;0.00;;;;;;;;;;5029015;28;20499;-56
2022/06/02 04:17:16;;;;;;;0.32;0.22;;;;;;;;;;5024837;28;20575;-56
2022/06/02 04:23:00;;;;;;;0.00;0.00;;;;;;;;;;5010163;28;20130;-55
2022/06/02 04:25:37;;;;;;;0.00;0.00;;;;;;;;;;5027781;28;20483;-56
2022/06/02 04:28:11;;;;;;;0.00;0.00;;;;;;;;;;5011957;28;20132;-56
2022/06/02 04:31:05;;;;;;;0.00;0.00;;;;;;;;;;5009394;28;20050;-55
2022/06/02 04:33:47;;;;;;;0.00;0.00;;;;;;;;;;5010762;28;20101;-56
2022/06/02 04:36:25;;;;;;;0.00;0.00;;;;;;;;;;5010681;28;20121;-56
2022/06/02 04:39:11;;;;;;;0.00;0.00;;;;;;;;;;5025081;28;20058;-55
2022/06/02 04:41:43;;;;;;;0.00;0.00;;;;;;;;;;5029091;28;20049;-56
2022/06/02 04:44:27;;;;;;;0.00;0.00;;;;;;;;;;5028472;28;20050;-56
2022/06/02 04:47:03;;;;;;;0.00;0.00;;;;;;;;;;5013300;28;20088;-55
2022/06/02 04:49:48;;;;;;;0.00;0.00;;;;;;;;;;5029268;28;20058;-55
2022/06/02 04:52:33;;;;;;;0.00;0.00;;;;;;;;;;5029250;28;20573;-54
2022/06/02 04:55:23;;;;;;;0.00;0.00;;;;;;;;;;5026333;28;20054;-54
2022/06/02 04:58:07;;;;;;;0.00;0.00;;;;;;;;;;5007257;28;20050;-55
2022/06/02 05:00:40;;;;;;;0.00;0.00;;;;;;;;;;5025996;28;20108;-57
2022/06/02 05:03:10;;;;;;;0.00;0.00;;;;;;;;;;5029377;28;20104;-57
2022/06/02 05:05:40;;;;;;;0.00;0.00;;;;;;;;;;5025147;28;20058;-56
2022/06/02 05:08:26;;;;;;;0.00;0.00;;;;;;;;;;5029480;28;20054;-56
2022/06/02 05:11:12;;;;;;;0.00;0.00;;;;;;;;;;5009533;28;20093;-57
2022/06/02 05:13:57;;;;;;;0.38;0.15;;;;;;;;;;5013626;28;20058;-56
2022/06/02 05:16:33;;;;;;;0.00;0.00;;;;;;;;;;5019705;28;20054;-56
2022/06/02 05:19:09;;;;;;;0.00;0.00;;;;;;;;;;5014843;28;20582;-56
2022/06/02 05:21:54;;;;;;;0.00;0.00;;;;;;;;;;5016795;28;20077;-56
2022/06/02 05:24:24;;;;;;;0.00;0.00;;;;;;;;;;5029491;28;20050;-56
2022/06/02 05:26:56;;;;;;;0.00;0.00;;;;;;;;;;5020964;28;20058;-56
2022/06/02 05:29:26;;;;;;;0.00;0.00;;;;;;;;;;5007387;28;20042;-58
2022/06/02 05:32:01;;;;;;;0.00;0.00;;;;;;;;;;5009179;28;20054;-55
2022/06/02 05:34:27;;;;;;;0.28;0.10;;;;;;;;;;5009550;28;20254;-56
2022/06/02 05:36:57;;;;;;;0.00;0.00;;;;;;;;;;5007579;28;20642;-54
2022/06/02 05:39:28;;;;;;;0.00;0.00;;;;;;;;;;5008968;28;20109;-57
2022/06/02 05:42:00;;;;;;;0.00;0.00;;;;;;;;;;5011917;28;20050;-58
2022/06/02 05:44:26;;;;;;;0.00;0.00;;;;;;;;;;5020587;28;20085;-57
2022/06/02 05:46:52;;;;;;;0.00;0.00;;;;;;;;;;5028574;28;20050;-55
2022/06/02 05:49:25;;;;;;;0.10;0.10;;;;;;;;;;5027256;28;20120;-55
2022/06/02 05:52:14;;;;;;;0.00;0.00;;;;;;;;;;5012811;28;20233;-56
2022/06/02 05:54:53;;;;;;;0.00;0.00;;;;;;;;;;5012612;28;20505;-55
2022/06/02 05:57:43;;;;;;;0.00;0.00;;;;;;;;;;5012577;28;20058;-55
2022/06/02 06:00:25;;;;;;;0.00;0.00;;;;;;;;;;5027736;28;20057;-55
2022/06/02 06:03:09;;;;;;;0.00;0.00;;;;;;;;;;5012040;28;20501;-55
2022/06/02 06:05:38;;;;;;;0.00;0.00;;;;;;;;;;5024052;28;20105;-55
2022/06/02 06:08:25;;;;;;;0.00;0.00;;;;;;;;;;5028506;28;20117;-55
2022/06/02 06:10:54;;;;;;;0.00;0.00;;;;;;;;;;5023821;28;20077;-61
2022/06/02 06:13:24;;;;;;;0.00;0.00;;;;;;;;;;5028158;28;20524;-58
2022/06/02 06:16:01;;;;;;;0.00;0.00;;;;;;;;;;5011689;28;20088;-58
2022/06/02 06:18:43;;;;;;;0.00;0.00;;;;;;;;;;5010199;28;20626;-58
2022/06/02 06:21:18;;;;;;;0.10;0.10;;;;;;;;;;5008214;28;20465;-59
2022/06/02 06:23:54;;;;;;;0.00;0.00;;;;;;;;;;5023668;28;20050;-59
2022/06/02 06:26:26;;;;;;;0.00;0.00;;;;;;;;;;5023206;28;20046;-59
2022/06/02 06:28:57;;;;;;;0.00;0.00;;;;;;;;;;5007999;28;20086;-58
2022/06/02 06:31:36;;;;;;;0.00;0.00;;;;;;;;;;5008336;28;20050;-59
2022/06/02 06:34:02;;;;;;;0.00;0.00;;;;;;;;;;5008666;28;20058;-59
2022/06/02 06:36:40;;;;;;;0.00;0.00;;;;;;;;;;5013703;28;20180;-58
2022/06/02 06:39:24;;;;;;;0.00;0.00;;;;;;;;;;5025442;28;20050;-58
2022/06/02 06:41:51;;;;;;;0.00;0.00;;;;;;;;;;5027321;28;20566;-58
2022/06/02 06:44:25;;;;;;;0.00;0.00;;;;;;;;;;5025157;28;20472;-60
2022/06/02 06:47:01;;;;;;;0.08;0.08;;;;;;;;;;5018767;28;20183;-58
2022/06/02 06:49:27;;;;;;;0.00;0.00;;;;;;;;;;5013750;28;20068;-58
2022/06/02 06:52:12;;;;;;;0.00;0.00;;;;;;;;;;5031328;28;20058;-58
2022/06/02 06:54:54;;;;;;;0.00;0.00;;;;;;;;;;5031216;28;20668;-60
2022/06/02 06:57:46;;;;;;;0.00;0.00;;;;;;;;;;5018397;28;20066;-60
2022/06/02 07:00:22;;;;;;;0.00;0.00;;;;;;;;;;5021555;28;20136;-60
2022/06/02 07:02:58;;;;;;;0.00;0.00;;;;;;;;;;5013777;28;20161;-60
2022/06/02 07:05:24;;;;;;;0.00;0.00;;;;;;;;;;5026455;28;20058;-60
2022/06/02 07:07:59;;;;;;;0.00;0.00;;;;;;;;;;5017207;28;20132;-61
2022/06/02 07:10:35;;;;;;;0.00;0.00;;;;;;;;;;5031266;28;20053;-60
2022/06/02 07:13:07;;;;;;;0.00;0.00;;;;;;;;;;5030181;28;20050;-60
2022/06/02 07:15:37;;;;;;;0.80;0.55;;;;;;;;;;5030871;28;20062;-60
2022/06/02 07:18:03;;;;;;;0.47;0.30;;;;;;;;;;5031108;28;20061;-60
2022/06/02 07:20:48;;;;;;;0.20;0.20;;;;;;;;;;5030376;28;20050;-60
2022/06/02 07:23:30;;;;;;;0.00;0.00;;;;;;;;;;5029927;28;20128;-60
2022/06/02 07:26:06;;;;;;;0.00;0.00;;;;;;;;;;5030299;28;20108;-60
2022/06/02 07:28:39;;;;;;;0.00;0.00;;;;;;;;;;5030529;28;20081;-60
2022/06/02 07:31:15;;;;;;;0.00;0.00;;;;;;;;;;5031172;28;20108;-60
2022/06/02 07:34:02;;;;;;;0.00;0.00;;;;;;;;;;5029483;28;20905;-60
2022/06/02 07:36:28;;;;;;;0.00;0.00;;;;;;;;;;5028264;28;20081;-60
2022/06/02 07:39:00;;;;;;;0.00;0.00;;;;;;;;;;5030400;28;20058;-60
2022/06/02 07:41:32;;;;;;;0.00;0.00;;;;;;;;;;5030217;28;20417;-60
2022/06/02 07:43:59;;;;;;;0.00;0.00;;;;;;;;;;5030354;28;20054;-60
2022/06/02 07:46:44;;;;;;;0.08;0.00;;;;;;;;;;5030350;28;20058;-60
2022/06/02 07:49:31;;;;;;;0.00;0.00;;;;;;;;;;5030056;28;20053;-60
2022/06/02 07:52:06;;;;;;;0.00;0.00;;;;;;;;;;5030488;28;20058;-60
2022/06/02 07:54:39;;;;;;;0.00;0.00;;;;;;;;;;5025428;28;20113;-60
2022/06/02 07:57:11;;;;;;;0.00;0.00;;;;;;;;;;5030891;28;20112;-60
2022/06/02 07:59:43;;;;;;;0.00;0.00;;;;;;;;;;5028608;28;20072;-60
2022/06/02 08:02:27;;;;;;;0.47;0.30;;;;;;;;;;5030329;28;20570;-60
2022/06/02 08:04:53;;;;;;;0.00;0.00;;;;;;;;;;5030426;28;20073;-60
2022/06/02 08:07:26;;;;;;;0.10;0.08;;;;;;;;;;5030251;28;20153;-60
2022/06/02 08:10:08;;;;;;;0.00;0.00;;;;;;;;;;5029879;28;20164;-60
2022/06/02 08:12:39;;;;;;;0.00;0.00;;;;;;;;;;5029319;28;20543;-60
2022/06/02 08:15:05;;;;;;;0.00;0.00;;;;;;;;;;5030278;28;20117;-60
2022/06/02 08:17:55;;;;;;;0.00;0.00;;;;;;;;;;5030036;28;20096;-60
2022/06/02 08:20:28;;;;;;;0.00;0.00;;;;;;;;;;5030094;28;20942;-60
2022/06/02 08:23:04;;;;;;;0.00;0.00;;;;;;;;;;5029641;28;20078;-60
2022/06/02 08:25:38;;;;;;;0.00;0.00;;;;;;;;;;5029155;28;20113;-60
2022/06/02 08:28:21;;;;;;;0.00;0.00;;;;;;;;;;5029645;28;20108;-60
2022/06/02 08:30:48;;;;;;;0.00;0.00;;;;;;;;;;5029580;28;20053;-60
2022/06/02 08:33:17;;;;;;;0.00;0.00;;;;;;;;;;5029673;28;20116;-60
2022/06/02 08:35:48;;;;;;;0.00;0.00;;;;;;;;;;5029982;28;20110;-60
2022/06/02 08:38:15;;;;;;;0.00;0.00;;;;;;;;;;5029489;28;20058;-60
2022/06/02 08:44:08;;;;;;;0.00;0.00;;;;;;;;;;5028369;28;21045;-60
2022/06/02 08:46:35;;;;;;;0.00;0.00;;;;;;;;;;5016669;28;20062;-61
2022/06/02 08:49:14;;;;;;;0.00;0.00;;;;;;;;;;5025494;28;20062;-60
2022/06/02 08:51:59;;;;;;;0.00;0.00;;;;;;;;;;5028525;28;20104;-60
2022/06/02 08:54:31;;;;;;;0.00;0.00;;;;;;;;;;5028167;28;20516;-60
2022/06/02 08:57:10;;;;;;;0.00;0.00;;;;;;;;;;5029434;28;20112;-60
2022/06/02 08:59:38;;;;;;;0.00;0.00;;;;;;;;;;5027216;28;20089;-60
2022/06/02 09:02:04;;;;;;;0.00;0.00;;;;;;;;;;5011620;28;20109;-60
2022/06/02 09:04:43;;;;;;;0.00;0.00;;;;;;;;;;5017153;28;20059;-60
2022/06/02 09:07:12;;;;;;;0.70;0.70;;;;;;;;;;5029819;28;20058;-60
2022/06/02 09:10:05;;;;;;;0.15;0.15;;;;;;;;;;5029390;28;20178;-60
2022/06/02 09:12:31;;;;;;;0.00;0.00;;;;;;;;;;5023042;28;20152;-60
2022/06/02 09:15:15;;;;;;;0.00;0.00;;;;;;;;;;5009144;28;20050;-60
2022/06/02 09:17:53;;;;;;;0.00;0.00;;;;;;;;;;5008478;28;20136;-60
2022/06/02 09:20:23;;;;;;;0.00;0.00;;;;;;;;;;5038110;28;20089;-60
2022/06/02 09:23:03;;;;;;;0.00;0.00;;;;;;;;;;5028974;28;20056;-60
2022/06/02 09:25:35;;;;;;;0.00;0.00;;;;;;;;;;5018280;28;20051;-60
2022/06/02 09:28:22;;;;;;;0.00;0.00;;;;;;;;;;5010078;28;20050;-61
2022/06/02 09:31:01;;;;;;;0.05;0.05;;;;;;;;;;5009179;28;20489;-60
2022/06/02 09:33:46;;;;;;;0.00;0.00;;;;;;;;;;5013457;28;20527;-60
2022/06/02 09:36:24;;;;;;;0.00;0.00;;;;;;;;;;5010525;28;20054;-61
2022/06/02 09:39:09;;;;;;;0.00;0.00;;;;;;;;;;5012825;28;20594;-60
2022/06/02 09:41:45;;;;;;;0.00;0.00;;;;;;;;;;5014432;28;20961;-61
2022/06/02 09:44:16;;;;;;;0.00;0.00;;;;;;;;;;5018055;28;20500;-61
2022/06/02 09:47:08;;;;;;;0.00;0.00;;;;;;;;;;5009072;28;20108;-61
2022/06/02 09:49:37;;;;;;;0.05;0.00;;;;;;;;;;5008735;28;20097;-60
2022/06/02 09:52:09;;;;;;;0.00;0.00;;;;;;;;;;5008665;28;20062;-60
2022/06/02 09:54:49;;;;;;;0.00;0.00;;;;;;;;;;5008503;28;20054;-61
2022/06/02 10:00:18;;;;;;;0.00;0.00;;;;;;;;;;5008691;28;20068;-61
2022/06/02 10:02:47;;;;;;;0.00;0.00;;;;;;;;;;5008645;28;20058;-61
2022/06/02 10:05:33;;;;;;;0.00;0.00;;;;;;;;;;5008935;28;20575;-60
2022/06/02 10:08:02;;;;;;;0.05;0.05;;;;;;;;;;5008183;28;20058;-60
2022/06/02 10:10:47;;;;;;;0.00;0.00;;;;;;;;;;5007363;28;20054;-61
2022/06/02 10:13:30;;;;;;;0.00;0.00;;;;;;;;;;5008874;28;20100;-61
2022/06/02 10:16:08;;;;;;;0.00;0.00;;;;;;;;;;5008359;28;20101;-61
2022/06/02 10:18:35;;;;;;;0.08;0.08;;;;;;;;;;5008703;28;20077;-61
2022/06/02 10:21:20;;;;;;;0.00;0.00;;;;;;;;;;5007516;28;20611;-61
2022/06/02 10:24:06;;;;;;;0.00;0.00;;;;;;;;;;5006388;28;20058;-61
2022/06/02 10:26:55;;;;;;;0.00;0.00;;;;;;;;;;5011014;28;20058;-60
2022/06/02 10:29:40;;;;;;;0.10;0.00;;;;;;;;;;5025443;28;20579;-61
2022/06/02 10:32:33;;;;;;;0.10;0.00;;;;;;;;;;5028016;28;20058;-61
2022/06/02 10:35:18;;;;;;;0.00;0.00;;;;;;;;;;5027244;28;20105;-61
2022/06/02 10:37:54;;;;;;;0.00;0.00;;;;;;;;;;5007379;28;20065;-58
2022/06/02 10:40:21;;;;;;;0.00;0.00;;;;;;;;;;5008195;28;20058;-61
2022/06/02 10:42:53;;;;;;;0.00;0.00;;;;;;;;;;5008138;28;20066;-61
2022/06/02 10:45:19;;;;;;;0.00;0.00;;;;;;;;;;5007997;28;20101;-60
2022/06/02 10:47:59;;;;;;;0.00;0.00;;;;;;;;;;5014500;28;20094;-60
2022/06/02 10:50:25;;;;;;;0.00;0.00;;;;;;;;;;5007767;28;20094;-59
2022/06/02 10:53:12;;;;;;;0.00;0.00;;;;;;;;;;5007908;28;20054;-60
2022/06/02 10:55:47;;;;;;;0.00;0.00;;;;;;;;;;5008533;28;20054;-60
2022/06/02 10:58:23;;;;;;;0.00;0.00;;;;;;;;;;5019252;28;20062;-59
2022/06/02 11:00:59;;;;;;;0.00;0.00;;;;;;;;;;5007821;28;20054;-60
2022/06/02 11:03:28;;;;;;;0.00;0.00;;;;;;;;;;5007538;28;20094;-60
2022/06/02 11:06:16;;;;;;;0.00;0.00;;;;;;;;;;5011650;28;20064;-60
2022/06/02 11:08:43;;;;;;;0.00;0.00;;;;;;;;;;5021571;28;20093;-60
2022/06/02 11:11:27;;;;;;;0.00;0.00;;;;;;;;;;5029922;28;20062;-60
2022/06/02 11:14:05;;;;;;;0.00;0.00;;;;;;;;;;5007672;28;20050;-60
2022/06/02 11:16:53;;;;;;;0.00;0.00;;;;;;;;;;5007565;28;20113;-60
2022/06/02 11:19:20;;;;;;;0.35;0.35;;;;;;;;;;5015286;28;20058;-59
2022/06/02 11:22:07;;;;;;;0.05;0.05;;;;;;;;;;5007827;28;20050;-60
2022/06/02 11:24:51;;;;;;;0.00;0.00;;;;;;;;;;5007646;28;20108;-60
2022/06/02 11:27:36;;;;;;;0.00;0.00;;;;;;;;;;5025235;28;20551;-60
2022/06/02 11:30:03;;;;;;;0.00;0.00;;;;;;;;;;5018575;28;20057;-59
2022/06/02 11:32:52;;;;;;;0.00;0.00;;;;;;;;;;5026682;28;20523;-60
2022/06/02 11:35:24;;;;;;;0.00;0.00;;;;;;;;;;5015816;28;20086;-61
2022/06/02 11:38:09;;;;;;;0.00;0.00;;;;;;;;;;5028265;28;20086;-60
2022/06/02 11:40:50;;;;;;;0.00;0.00;;;;;;;;;;5026579;28;20062;-61
2022/06/02 11:43:24;;;;;;;0.00;0.00;;;;;;;;;;5014448;28;20058;-60
2022/06/02 11:46:00;;;;;;;0.00;0.00;;;;;;;;;;5030398;28;20053;-61
2022/06/02 11:48:29;;;;;;;1.25;0.10;;;;;;;;;;5038728;28;20049;-60
2022/06/02 11:51:14;;;;;;;0.08;0.08;;;;;;;;;;5023242;28;20058;-59
2022/06/02 11:53:47;;;;;;;0.00;0.00;;;;;;;;;;5010476;28;20086;-59
2022/06/02 11:56:26;;;;;;;0.00;0.00;;;;;;;;;;5009458;28;20571;-60
2022/06/02 11:58:53;;;;;;;0.55;0.55;;;;;;;;;;5014456;28;20082;-60
2022/06/02 12:01:21;;;;;;;0.00;0.00;;;;;;;;;;5010080;28;20105;-60
2022/06/02 12:04:16;;;;;;;0.00;0.00;;;;;;;;;;5010195;28;20058;-60
2022/06/02 12:06:47;;;;;;;0.00;0.00;;;;;;;;;;5011084;28;20054;-59
2022/06/02 12:09:30;;;;;;;0.00;0.00;;;;;;;;;;5011443;28;20062;-60
2022/06/02 12:12:06;;;;;;;0.00;0.00;;;;;;;;;;5010283;28;20054;-59
2022/06/02 12:14:48;;;;;;;0.05;0.00;;;;;;;;;;5010224;28;20058;-60
2022/06/02 12:17:32;;;;;;;0.00;0.00;;;;;;;;;;5017712;28;20120;-60
2022/06/02 12:20:13;;;;;;;0.00;0.00;;;;;;;;;;5010164;28;20050;-60
2022/06/02 12:22:59;;;;;;;0.00;0.00;;;;;;;;;;5009913;28;20062;-60
2022/06/02 12:25:34;;;;;;;0.00;0.00;;;;;;;;;;5009283;28;20206;-60
2022/06/02 12:28:30;;;;;;;0.00;0.00;;;;;;;;;;5021294;28;20054;-60
2022/06/02 12:31:15;;;;;;;0.10;0.03;;;;;;;;;;5040542;28;20093;-60
2022/06/02 12:33:54;;;;;;;0.00;0.00;;;;;;;;;;5009164;28;20496;-59
2022/06/02 12:36:33;;;;;;;0.00;0.00;;;;;;;;;;5010493;28;20109;-59
2022/06/02 12:39:18;;;;;;;0.00;0.00;;;;;;;;;;5025563;28;20144;-59
2022/06/02 12:42:04;;;;;;;0.00;0.00;;;;;;;;;;5010061;28;20058;-60
2022/06/02 12:44:50;;;;;;;0.00;0.00;;;;;;;;;;5009114;28;20578;-60
2022/06/02 12:47:25;;;;;;;0.00;0.00;;;;;;;;;;5012633;28;20112;-60
2022/06/02 12:50:03;;;;;;;0.00;0.00;;;;;;;;;;5007950;28;20082;-59
2022/06/02 12:52:38;;;;;;;0.05;0.05;;;;;;;;;;5019538;28;20053;-59
2022/06/02 12:55:29;;;;;;;0.00;0.00;;;;;;;;;;5027995;28;20089;-59
2022/06/02 12:57:55;;;;;;;0.28;0.20;;;;;;;;;;5014265;28;20061;-59
2022/06/02 13:00:43;;;;;;;0.00;0.00;;;;;;;;;;5015715;28;20054;-59
2022/06/02 13:03:28;;;;;;;0.00;0.00;;;;;;;;;;5010225;28;20062;-59
2022/06/02 13:06:13;;;;;;;0.22;0.20;;;;;;;;;;5020088;28;20104;-59
2022/06/02 13:08:39;;;;;;;0.00;0.00;;;;;;;;;;5014682;28;20057;-60
2022/06/02 13:11:12;;;;;;;0.00;0.00;;;;;;;;;;5009440;28;20054;-60
2022/06/02 13:13:45;;;;;;;0.00;0.00;;;;;;;;;;5008967;28;20113;-60
2022/06/02 13:16:30;;;;;;;0.60;0.60;;;;;;;;;;5008381;28;20114;-60
2022/06/02 13:19:08;;;;;;;0.00;0.00;;;;;;;;;;5009185;28;20062;-60
2022/06/02 13:21:37;;;;;;;0.00;0.00;;;;;;;;;;5008873;28;20062;-59
2022/06/02 13:24:40;;;;;;;0.10;0.10;;;;;;;;;;5009511;28;20528;-59
2022/06/02 13:27:25;;;;;;;0.00;0.00;;;;;;;;;;5009018;28;20066;-60
2022/06/02 13:30:00;;;;;;;0.00;0.00;;;;;;;;;;5008992;28;20058;-60
2022/06/02 13:32:30;;;;;;;0.00;0.00;;;;;;;;;;5008689;28;20058;-59
2022/06/02 13:35:15;;;;;;;0.10;0.10;;;;;;;;;;5008600;28;20054;-60
2022/06/02 13:37:48;;;;;;;0.00;0.00;;;;;;;;;;5008233;28;20054;-61
2022/06/02 13:40:17;;;;;;;0.00;0.00;;;;;;;;;;5008969;28;20050;-60
2022/06/02 13:43:04;;;;;;;0.10;0.10;;;;;;;;;;5007837;28;20054;-60
2022/06/02 13:46:01;;;;;;;0.10;0.10;;;;;;;;;;5009532;28;20501;-60
2022/06/02 13:48:46;;;;;;;0.00;0.00;;;;;;;;;;5008017;28;20497;-60
2022/06/02 13:51:12;;;;;;;0.10;0.10;;;;;;;;;;5008755;28;20054;-60
2022/06/02 13:59:39;;;;;;;0.00;0.00;;;;;;;;;;5022885;28;20057;-60
2022/06/02 14:02:26;;;;;;;0.00;0.00;;;;;;;;;;5008506;28;20113;-60
2022/06/02 14:05:11;;;;;;;0.00;0.00;;;;;;;;;;5016365;28;20053;-59
2022/06/02 14:07:45;;;;;;;0.00;0.00;;;;;;;;;;5010799;28;20889;-59
2022/06/02 14:10:30;;;;;;;0.00;0.00;;;;;;;;;;5007902;28;20059;-60
2022/06/02 14:13:15;;;;;;;0.17;0.08;;;;;;;;;;5005792;28;20109;-59
2022/06/02 14:15:45;;;;;;;0.90;0.10;;;;;;;;;;5010631;28;20109;-59
2022/06/02 14:18:23;;;;;;;0.10;0.10;;;;;;;;;;5013818;28;20066;-59
2022/06/02 14:21:05;;;;;;;0.00;0.00;;;;;;;;;;5023083;28;20050;-60
2022/06/02 14:23:35;;;;;;;0.10;0.10;;;;;;;;;;5011936;28;20109;-59
2022/06/02 14:26:09;;;;;;;0.30;0.08;;;;;;;;;;5007835;28;20421;-59
2022/06/02 14:28:41;;;;;;;0.10;0.10;;;;;;;;;;5008145;28;20113;-59
2022/06/02 14:31:34;;;;;;;0.10;0.10;;;;;;;;;;5008076;28;20080;-59
2022/06/02 14:34:16;;;;;;;0.00;0.00;;;;;;;;;;5007357;28;20113;-59
2022/06/02 14:37:02;;;;;;;0.00;0.00;;;;;;;;;;5007408;28;21336;-59
2022/06/02 14:39:53;;;;;;;0.00;0.00;;;;;;;;;;5008763;28;20917;-59
2022/06/02 14:43:03;;;;;;;0.03;0.03;;;;;;;;;;5007340;28;20077;-59
2022/06/02 14:45:14;;;;;;;0.08;0.08;;;;;;;;;;5007983;28;20508;-59
2022/06/02 14:47:46;;;;;;;0.00;0.00;;;;;;;;;;5021037;28;20058;-59
2022/06/02 14:50:35;;;;;;;0.00;0.00;;;;;;;;;;5023180;28;20141;-58
2022/06/02 14:53:12;;;;;;;0.10;0.10;;;;;;;;;;5018604;28;20077;-60
2022/06/02 14:55:45;;;;;;;0.00;0.00;;;;;;;;;;5007566;28;20086;-60
2022/06/02 14:58:23;;;;;;;0.00;0.00;;;;;;;;;;5013178;28;20054;-57
2022/06/02 15:01:04;;;;;;;0.10;0.10;;;;;;;;;;5025821;28;20074;-59
2022/06/02 15:03:30;;;;;;;0.00;0.00;;;;;;;;;;5025516;28;20538;-58
2022/06/02 15:05:59;;;;;;;0.10;0.10;;;;;;;;;;5024686;28;20057;-59
2022/06/02 15:08:43;;;;;;;0.00;0.00;;;;;;;;;;5025731;28;20112;-60
2022/06/02 15:11:30;;;;;;;0.22;0.22;;;;;;;;;;5013550;28;20520;-59
2022/06/02 15:14:07;;;;;;;0.00;0.00;;;;;;;;;;5019211;28;20132;-59
2022/06/02 15:16:52;;;;;;;0.20;0.20;;;;;;;;;;5029855;28;20116;-60
2022/06/02 15:19:18;;;;;;;0.10;0.10;;;;;;;;;;5029313;28;20511;-60
2022/06/02 15:22:16;;;;;;;0.20;0.20;;;;;;;;;;5029610;28;20072;-60
2022/06/02 15:24:54;;;;;;;0.00;0.00;;;;;;;;;;5020703;28;20077;-60
2022/06/02 15:27:20;;;;;;;0.00;0.00;;;;;;;;;;5009929;28;20136;-59
2022/06/02 15:30:10;;;;;;;0.00;0.00;;;;;;;;;;5009054;28;20575;-60
2022/06/02 15:32:55;;;;;;;0.00;0.00;;;;;;;;;;5026666;28;20058;-59
2022/06/02 15:35:32;;;;;;;0.00;0.00;;;;;;;;;;5028997;28;20057;-61
2022/06/02 15:38:01;;;;;;;0.00;0.00;;;;;;;;;;5029218;28;20778;-61
2022/06/02 15:40:43;;;;;;;0.00;0.00;;;;;;;;;;5028492;28;20190;-59
2022/06/02 15:43:16;;;;;;;0.00;0.00;;;;;;;;;;5029558;28;20081;-60
2022/06/02 15:45:52;;;;;;;0.20;0.20;;;;;;;;;;5028538;28;20054;-59
2022/06/02 15:48:19;;;;;;;0.00;0.00;;;;;;;;;;5022779;28;20057;-60
2022/06/02 15:51:04;;;;;;;0.00;0.00;;;;;;;;;;5028812;28;20062;-61
2022/06/02 15:53:52;;;;;;;0.00;0.00;;;;;;;;;;5018443;28;20060;-60
2022/06/02 15:56:37;;;;;;;0.00;0.00;;;;;;;;;;5022400;28;20049;-60
2022/06/02 15:59:17;;;;;;;0.00;0.00;;;;;;;;;;5011328;28;20466;-59
2022/06/02 16:02:02;;;;;;;0.00;0.00;;;;;;;;;;5010399;28;20104;-60
2022/06/02 16:05:04;;;;;;;0.08;0.08;;;;;;;;;;5010527;28;20054;-60